Time;durP1;ratioP1;P1;durP2;ratioP2;P2;SDS_P1;SDS_P2;PMS_P1;PMS_P2;Temp;Humidity;BMP_temperature;BMP_pressure;BME280_temperature;BME280_humidity;BME280_pressure;Samples;Min_cycle;Max_cycle;Signal;HPM_P1;HPM_P2
2022/07/29 00:01:47;;;;;;;6.03;2.60;;;;;;;17.10;62.66;101592.25;5045616;28;20032;-68
2022/07/29 00:04:12;;;;;;;6.00;2.13;;;;;;;17.07;62.33;101581.66;5043404;28;20020;-68
2022/07/29 00:06:38;;;;;;;6.07;2.25;;;;;;;17.03;62.24;101574.09;5043025;28;20080;-68
2022/07/29 00:09:03;;;;;;;8.27;2.30;;;;;;;17.06;62.50;101576.38;5043300;28;20084;-68
2022/07/29 00:11:28;;;;;;;5.13;2.30;;;;;;;16.99;61.99;101584.88;5043332;28;20129;-68
2022/07/29 00:13:54;;;;;;;5.70;2.30;;;;;;;17.02;62.84;101589.06;5044706;28;20032;-68
2022/07/29 00:16:19;;;;;;;4.43;2.15;;;;;;;17.03;63.34;101582.41;5044551;28;20096;-68
2022/07/29 00:18:44;;;;;;;7.68;2.30;;;;;;;17.03;63.07;101588.84;5044355;28;20410;-68
2022/07/29 00:21:09;;;;;;;7.50;2.55;;;;;;;17.05;63.31;101592.19;5042367;28;20055;-68
2022/07/29 00:23:35;;;;;;;5.45;2.25;;;;;;;17.05;63.21;101583.84;5044295;28;20024;-68
2022/07/29 00:26:00;;;;;;;5.03;2.30;;;;;;;17.08;63.57;101583.34;5044172;28;20021;-68
2022/07/29 00:28:26;;;;;;;7.60;2.47;;;;;;;17.10;63.44;101581.16;5044150;28;20035;-68
2022/07/29 00:30:51;;;;;;;7.40;2.10;;;;;;;17.11;63.38;101580.06;5044603;28;20048;-68
2022/07/29 00:33:16;;;;;;;6.63;2.30;;;;;;;17.12;63.24;101576.16;5044006;28;20035;-68
2022/07/29 00:35:44;;;;;;;6.38;2.50;;;;;;;17.09;65.28;101571.16;5043517;28;20072;-68
2022/07/29 00:38:11;;;;;;;6.95;2.50;;;;;;;17.11;64.49;101559.78;5043297;28;20032;-68
2022/07/29 00:40:37;;;;;;;7.30;2.80;;;;;;;17.05;63.56;101569.16;5044052;28;20021;-68
2022/07/29 00:43:02;;;;;;;8.60;2.50;;;;;;;17.06;63.75;101570.81;5043054;28;21037;-68
2022/07/29 00:45:27;;;;;;;5.97;2.20;;;;;;;17.07;64.24;101570.56;5044247;28;20331;-68
2022/07/29 00:47:53;;;;;;;6.03;2.45;;;;;;;17.03;65.30;101576.88;5043842;28;20052;-68
2022/07/29 00:50:18;;;;;;;6.90;2.72;;;;;;;17.02;65.54;101587.13;5043546;28;20029;-68
2022/07/29 00:52:44;;;;;;;8.32;2.47;;;;;;;16.98;64.96;101574.03;5044286;28;20539;-68
2022/07/29 00:55:12;;;;;;;9.52;2.50;;;;;;;16.95;64.13;101583.72;5041669;28;20596;-68
2022/07/29 00:57:38;;;;;;;5.70;2.28;;;;;;;16.94;64.80;101583.97;5042745;28;20047;-68
2022/07/29 01:00:07;;;;;;;5.75;2.30;;;;;;;16.85;65.21;101589.94;5043072;28;20025;-68
2022/07/29 01:02:32;;;;;;;6.40;3.03;;;;;;;16.84;65.32;101598.53;5044202;28;20032;-68
2022/07/29 01:04:57;;;;;;;7.45;2.38;;;;;;;16.85;65.09;101612.16;5042932;28;20022;-68
2022/07/29 01:07:25;;;;;;;7.00;2.20;;;;;;;16.83;65.44;101617.13;5044183;28;20095;-68
2022/07/29 01:09:51;;;;;;;6.30;2.25;;;;;;;16.86;64.11;101618.53;5043554;28;20090;-69
2022/07/29 01:12:21;;;;;;;3.70;2.10;;;;;;;16.85;65.94;101626.03;5042565;28;20028;-68
2022/07/29 01:14:48;;;;;;;6.32;2.38;;;;;;;16.85;64.50;101627.94;5042697;28;20036;-68
2022/07/29 01:17:25;;;;;;;5.85;2.65;;;;;;;16.90;64.65;101610.56;5038638;28;20128;-68
2022/07/29 01:20:01;;;;;;;7.80;3.45;;;;;;;16.87;64.35;101609.09;5038040;28;20035;-68
2022/07/29 01:22:45;;;;;;;6.70;2.63;;;;;;;16.82;65.60;101603.47;5047345;28;20025;-68
2022/07/29 01:25:34;;;;;;;10.07;2.83;;;;;;;16.99;65.12;101590.44;5041514;28;20036;-68
2022/07/29 01:27:59;;;;;;;6.05;2.78;;;;;;;16.76;66.77;101576.75;5045909;28;20510;-68
2022/07/29 01:30:26;;;;;;;4.27;2.70;;;;;;;16.61;67.49;101572.63;5047860;28;20024;-68
2022/07/29 01:32:56;;;;;;;8.35;3.47;;;;;;;16.45;68.47;101556.84;5047219;28;20518;-68
2022/07/29 01:35:40;;;;;;;5.88;2.83;;;;;;;16.49;67.82;101552.47;5047626;28;20157;-68
2022/07/29 01:38:13;;;;;;;8.38;3.10;;;;;;;16.33;69.95;101547.78;5047257;28;20025;-68
2022/07/29 01:40:52;;;;;;;6.78;3.28;;;;;;;16.27;69.57;101555.16;5047331;28;20021;-68
2022/07/29 01:43:23;;;;;;;7.50;3.35;;;;;;;16.25;70.14;101540.69;5047894;28;20033;-68
2022/07/29 01:45:55;;;;;;;9.73;3.47;;;;;;;16.31;72.18;101533.31;5047004;28;20021;-68
2022/07/29 01:48:31;;;;;;;10.13;3.58;;;;;;;16.29;72.02;101529.97;5041302;28;20081;-68
2022/07/29 01:51:11;;;;;;;6.57;3.00;;;;;;;16.49;70.07;101521.97;5027348;28;20029;-68
2022/07/29 01:53:47;;;;;;;7.85;3.28;;;;;;;16.31;70.47;101511.97;5027278;28;20056;-68
2022/07/29 01:56:14;;;;;;;7.13;3.20;;;;;;;16.12;72.99;101513.34;5032461;28;20053;-68
2022/07/29 01:58:43;;;;;;;10.18;3.50;;;;;;;16.12;71.94;101518.88;5046228;28;20064;-68
2022/07/29 02:01:11;;;;;;;6.43;3.15;;;;;;;16.16;71.08;101516.44;5040270;28;20784;-68
2022/07/29 02:03:38;;;;;;;9.20;3.65;;;;;;;16.04;72.63;101516.50;5047242;28;20013;-68
2022/07/29 02:06:06;;;;;;;9.10;3.33;;;;;;;15.99;74.04;101520.03;5046879;28;20041;-68
2022/07/29 02:08:33;;;;;;;9.45;4.40;;;;;;;16.01;74.36;101512.28;5045268;28;20033;-68
2022/07/29 02:11:02;;;;;;;11.07;3.50;;;;;;;16.03;73.71;101507.38;5047634;28;20095;-68
2022/07/29 02:13:29;;;;;;;8.68;3.72;;;;;;;16.06;73.61;101508.78;5047398;28;20025;-68
2022/07/29 02:15:56;;;;;;;8.10;3.60;;;;;;;16.05;74.00;101507.09;5045786;28;20043;-68
2022/07/29 02:18:25;;;;;;;7.83;3.73;;;;;;;16.06;74.79;101500.47;5047373;28;20397;-68
2022/07/29 02:20:54;;;;;;;8.88;3.67;;;;;;;16.03;74.30;101498.22;5045373;28;20036;-69
2022/07/29 02:23:21;;;;;;;7.40;3.40;;;;;;;16.02;73.35;101485.47;5046524;28;20040;-68
2022/07/29 02:25:51;;;;;;;10.32;3.80;;;;;;;16.01;72.49;101484.59;5046704;28;20060;-68
2022/07/29 02:28:18;;;;;;;7.68;3.75;;;;;;;15.97;72.53;101485.38;5047114;28;20029;-67
2022/07/29 02:30:45;;;;;;;9.70;3.67;;;;;;;16.07;71.37;101480.84;5046103;28;20384;-68
2022/07/29 02:33:14;;;;;;;9.25;3.50;;;;;;;15.94;72.12;101486.69;5047107;28;20276;-68
2022/07/29 02:35:41;;;;;;;7.80;3.70;;;;;;;15.80;72.99;101482.56;5045406;28;20037;-68
2022/07/29 02:40:54;;;;;;;7.22;3.67;;;;;;;15.79;72.33;101476.19;5046613;28;20506;-68
2022/07/29 02:43:22;;;;;;;8.77;3.92;;;;;;;15.73;73.05;101487.44;5046750;28;20063;-68
2022/07/29 02:45:52;;;;;;;8.57;3.83;;;;;;;15.64;73.57;101498.06;5046419;28;20100;-68
2022/07/29 02:48:22;;;;;;;9.55;3.92;;;;;;;15.60;74.61;101498.78;5047558;28;20090;-68
2022/07/29 02:50:51;;;;;;;6.90;3.80;;;;;;;15.60;74.67;101501.56;5038765;28;20030;-68
2022/07/29 02:53:23;;;;;;;9.30;4.07;;;;;;;15.62;74.81;101504.94;5027194;28;20037;-69
2022/07/29 02:55:56;;;;;;;9.60;3.47;;;;;;;15.62;73.92;101507.69;5027583;28;20061;-68
2022/07/29 02:58:34;;;;;;;10.25;4.13;;;;;;;15.64;73.54;101500.00;5032279;28;20057;-68
2022/07/29 03:01:15;;;;;;;9.90;4.37;;;;;;;15.57;74.58;101494.59;5045175;28;20025;-68
2022/07/29 03:03:44;;;;;;;12.40;4.90;;;;;;;15.54;75.92;101490.38;5044121;28;20085;-68
2022/07/29 03:06:11;;;;;;;10.20;4.72;;;;;;;15.49;75.74;101487.50;5045873;28;20080;-68
2022/07/29 03:08:37;;;;;;;10.93;4.80;;;;;;;15.51;75.07;101490.03;5045965;28;20052;-68
2022/07/29 03:11:04;;;;;;;9.88;4.60;;;;;;;15.42;75.70;101495.16;5029786;28;20411;-68
2022/07/29 03:13:30;;;;;;;12.50;4.85;;;;;;;15.39;76.04;101503.94;5026039;28;20032;-68
2022/07/29 03:15:57;;;;;;;10.73;4.20;;;;;;;15.39;76.09;101505.84;5039864;28;20630;-69
2022/07/29 03:18:23;;;;;;;8.20;4.60;;;;;;;15.48;76.23;101504.38;5046453;28;20025;-68
2022/07/29 03:20:48;;;;;;;8.32;4.95;;;;;;;15.44;76.22;101512.34;5046280;28;20036;-68
2022/07/29 03:23:22;;;;;;;9.68;4.88;;;;;;;15.41;76.59;101507.31;5045146;28;20027;-68
2022/07/29 03:25:49;;;;;;;11.68;4.93;;;;;;;15.42;77.34;101508.16;5037060;28;20029;-68
2022/07/29 03:28:14;;;;;;;7.75;4.78;;;;;;;15.44;77.28;101503.19;5041392;28;20029;-68
2022/07/29 03:30:39;;;;;;;9.25;4.70;;;;;;;15.45;77.43;101502.09;5042126;28;20578;-68
2022/07/29 03:33:05;;;;;;;10.75;5.25;;;;;;;15.39;77.71;101512.22;5045431;28;20090;-68
2022/07/29 03:35:31;;;;;;;9.38;5.07;;;;;;;15.37;77.77;101513.59;5044933;28;20025;-68
2022/07/29 03:37:57;;;;;;;10.50;4.40;;;;;;;15.30;78.15;101517.31;5045064;28;20519;-69
2022/07/29 03:40:27;;;;;;;11.88;5.38;;;;;;;15.28;77.64;101516.72;5042410;28;20167;-68
2022/07/29 03:42:54;;;;;;;9.82;4.95;;;;;;;15.31;78.94;101515.41;5045077;28;20048;-68
2022/07/29 03:45:21;;;;;;;10.85;5.18;;;;;;;15.31;79.52;101515.41;5044408;28;20028;-68
2022/07/29 03:47:51;;;;;;;9.23;4.82;;;;;;;15.28;79.38;101507.59;5045196;28;20155;-68
2022/07/29 03:50:19;;;;;;;8.15;5.28;;;;;;;15.21;79.11;101510.50;5044917;28;20021;-67
2022/07/29 03:52:45;;;;;;;13.57;5.45;;;;;;;15.23;79.09;101496.41;5045165;28;20040;-68
2022/07/29 03:55:11;;;;;;;10.27;5.10;;;;;;;15.21;80.15;101501.38;5042770;28;20601;-68
2022/07/29 03:57:38;;;;;;;9.32;4.90;;;;;;;15.18;79.18;101504.63;5043646;28;20449;-68
2022/07/29 04:00:05;;;;;;;10.88;4.93;;;;;;;15.15;79.52;101513.38;5043866;28;20056;-68
2022/07/29 04:02:32;;;;;;;10.15;5.60;;;;;;;15.06;79.09;101507.44;5044286;28;20111;-68
2022/07/29 04:04:57;;;;;;;11.80;5.10;;;;;;;15.06;79.90;101510.19;5044786;28;20025;-68
2022/07/29 04:07:22;;;;;;;9.63;5.32;;;;;;;15.08;79.39;101512.69;5043668;28;20041;-66
2022/07/29 04:09:48;;;;;;;11.10;5.28;;;;;;;15.15;79.74;101508.69;5043466;28;20044;-66
2022/07/29 04:12:13;;;;;;;10.82;4.85;;;;;;;15.16;79.56;101515.09;5044365;28;20485;-67
2022/07/29 04:14:38;;;;;;;11.30;6.07;;;;;;;15.19;80.11;101506.28;5043766;28;20029;-66
2022/07/29 04:17:04;;;;;;;11.88;5.15;;;;;;;15.18;80.64;101497.16;5044384;28;20387;-66
2022/07/29 04:19:30;;;;;;;10.60;5.50;;;;;;;15.15;80.89;101505.94;5043695;28;20035;-66
2022/07/29 04:21:56;;;;;;;11.88;5.32;;;;;;;15.05;80.44;101503.81;5038697;28;20391;-67
2022/07/29 04:24:21;;;;;;;9.60;5.22;;;;;;;14.99;80.94;101503.94;5043248;28;20476;-67
2022/07/29 04:26:47;;;;;;;11.38;6.20;;;;;;;15.02;81.42;101501.53;5043318;28;20099;-67
2022/07/29 04:29:14;;;;;;;11.60;6.20;;;;;;;15.04;81.10;101493.81;5044376;28;20029;-67
2022/07/29 04:31:40;;;;;;;10.27;6.82;;;;;;;15.03;80.80;101481.06;5045104;28;20057;-68
2022/07/29 04:34:05;;;;;;;12.52;6.60;;;;;;;15.08;81.20;101480.34;5044344;28;20029;-68
2022/07/29 04:36:30;;;;;;;13.40;7.40;;;;;;;15.04;80.78;101496.56;5044276;28;20567;-67
2022/07/29 04:38:56;;;;;;;14.75;7.55;;;;;;;14.99;80.85;101507.53;5041757;28;20025;-67
2022/07/29 04:41:21;;;;;;;13.50;7.95;;;;;;;15.01;80.74;101504.56;5044333;28;20025;-69
2022/07/29 04:43:46;;;;;;;16.63;7.38;;;;;;;15.02;80.30;101509.81;5043935;28;20059;-67
2022/07/29 04:46:12;;;;;;;15.93;7.47;;;;;;;15.05;81.15;101512.13;5044529;28;20483;-67
2022/07/29 04:48:37;;;;;;;12.15;7.60;;;;;;;15.05;81.39;101523.19;5038831;28;20026;-67
2022/07/29 04:51:03;;;;;;;12.65;7.60;;;;;;;15.11;81.11;101526.06;5039622;28;20064;-67
2022/07/29 04:53:28;;;;;;;13.00;7.72;;;;;;;15.11;79.95;101528.81;5042909;28;20119;-68
2022/07/29 04:55:53;;;;;;;14.27;7.93;;;;;;;15.08;80.45;101532.06;5043932;28;20035;-68
2022/07/29 04:58:19;;;;;;;13.90;7.45;;;;;;;15.13;79.26;101526.66;5044048;28;20108;-67
2022/07/29 05:00:44;;;;;;;16.52;7.97;;;;;;;15.05;79.43;101537.00;5039530;28;20037;-68
2022/07/29 05:03:09;;;;;;;12.95;7.57;;;;;;;15.08;78.95;101526.53;5043751;28;20117;-67
2022/07/29 05:05:35;;;;;;;11.38;7.97;;;;;;;14.99;80.25;101526.06;5041381;28;20056;-70
2022/07/29 05:08:00;;;;;;;13.55;8.23;;;;;;;14.99;81.19;101531.59;5038881;28;20128;-67
2022/07/29 05:10:25;;;;;;;12.38;8.00;;;;;;;15.03;81.50;101538.31;5040829;28;20464;-67
2022/07/29 05:12:51;;;;;;;12.27;7.90;;;;;;;15.11;81.09;101539.91;5040249;28;20032;-68
2022/07/29 05:15:17;;;;;;;11.90;7.82;;;;;;;15.18;81.17;101540.59;5060389;28;20028;-68
2022/07/29 05:17:43;;;;;;;16.23;8.60;;;;;;;15.18;81.07;101535.88;5060860;28;20081;-68
2022/07/29 05:20:09;;;;;;;12.18;8.10;;;;;;;15.16;81.21;101543.59;5043369;28;20033;-69
2022/07/29 05:22:34;;;;;;;14.10;7.68;;;;;;;15.13;81.47;101560.69;5044105;28;20047;-69
2022/07/29 05:24:59;;;;;;;13.70;7.95;;;;;;;15.17;82.33;101556.34;5042028;28;20028;-69
2022/07/29 05:27:25;;;;;;;12.63;7.55;;;;;;;15.18;80.77;101560.78;5043578;28;20064;-68
2022/07/29 05:29:50;;;;;;;13.27;7.75;;;;;;;15.24;80.66;101559.81;5044255;28;20070;-69
2022/07/29 05:32:15;;;;;;;11.95;7.78;;;;;;;15.26;79.78;101554.88;5044071;28;20017;-69
2022/07/29 05:34:41;;;;;;;12.93;7.60;;;;;;;15.24;80.45;101561.75;5043907;28;20032;-68
2022/07/29 05:37:07;;;;;;;11.50;6.95;;;;;;;15.23;81.53;101565.59;5043017;28;20107;-69
2022/07/29 05:39:32;;;;;;;11.77;7.18;;;;;;;15.29;80.95;101553.53;5042392;28;20143;-68
2022/07/29 05:41:58;;;;;;;11.60;7.07;;;;;;;15.30;80.20;101561.59;5043428;28;20067;-67
2022/07/29 05:44:23;;;;;;;12.93;7.40;;;;;;;15.34;80.68;101561.13;5043458;28;20029;-66
2022/07/29 05:46:48;;;;;;;12.80;7.68;;;;;;;15.37;81.20;101564.25;5044224;28;20036;-66
2022/07/29 05:49:14;;;;;;;61.25;11.77;;;;;;;15.42;81.35;101557.97;5043452;28;20171;-69
2022/07/29 05:51:39;;;;;;;12.50;7.45;;;;;;;15.43;80.78;101566.03;5043142;28;20522;-67
2022/07/29 05:54:05;;;;;;;12.00;6.60;;;;;;;15.51;79.37;101562.88;5042130;28;20025;-69
2022/07/29 05:56:30;;;;;;;11.93;7.18;;;;;;;15.50;80.17;101569.47;5043833;28;20124;-71
2022/07/29 05:58:55;;;;;;;11.52;7.18;;;;;;;15.53;80.08;101566.22;5043450;28;20061;-69
2022/07/29 06:01:21;;;;;;;11.25;7.25;;;;;;;15.61;80.23;101566.91;5042130;28;20029;-69
2022/07/29 06:03:46;;;;;;;10.23;7.07;;;;;;;15.74;81.03;101564.72;5042019;28;20025;-68
2022/07/29 06:06:12;;;;;;;12.35;7.05;;;;;;;15.80;80.73;101573.97;5045421;28;20071;-69
2022/07/29 06:08:37;;;;;;;12.63;6.38;;;;;;;15.90;79.82;101565.84;5046632;28;20033;-69
2022/07/29 06:11:04;;;;;;;11.68;6.78;;;;;;;15.97;78.69;101558.25;5046413;28;20020;-68
2022/07/29 06:13:29;;;;;;;10.45;5.80;;;;;;;15.95;77.09;101552.09;5047312;28;20032;-69
2022/07/29 06:15:55;;;;;;;10.60;6.72;;;;;;;15.96;79.31;101564.00;5046813;28;20434;-71
2022/07/29 06:18:23;;;;;;;12.15;6.43;;;;;;;16.09;76.92;101559.00;5046666;28;20403;-69
2022/07/29 06:20:52;;;;;;;10.43;6.93;;;;;;;16.01;78.37;101556.63;5044688;28;20031;-68
2022/07/29 06:23:18;;;;;;;8.55;6.15;;;;;;;16.02;77.83;101557.50;5046224;28;20029;-69
2022/07/29 06:25:43;;;;;;;10.18;6.43;;;;;;;16.08;78.72;101560.09;5046364;28;20020;-69
2022/07/29 06:28:09;;;;;;;9.35;6.20;;;;;;;16.20;77.45;101560.03;5045259;28;20079;-69
2022/07/29 06:30:34;;;;;;;8.50;6.00;;;;;;;16.34;77.68;101566.09;5047281;28;20472;-69
2022/07/29 06:33:01;;;;;;;9.05;6.32;;;;;;;16.47;75.87;101564.91;5046029;28;20476;-67
2022/07/29 06:35:26;;;;;;;8.65;6.03;;;;;;;16.52;76.68;101562.19;5037419;28;21572;-67
2022/07/29 06:37:52;;;;;;;9.45;6.57;;;;;;;16.58;75.08;101559.28;5045638;28;20032;-68
2022/07/29 06:43:01;;;;;;;9.70;5.50;;;;;;;16.73;75.44;101555.94;5038826;28;20047;-70
2022/07/29 06:45:26;;;;;;;9.02;5.20;;;;;;;16.82;75.38;101557.16;5040364;28;20455;-68
2022/07/29 06:47:52;;;;;;;9.98;5.13;;;;;;;16.85;73.37;101562.19;5037711;28;20033;-68
2022/07/29 06:50:17;;;;;;;9.18;5.45;;;;;;;16.87;74.86;101559.16;5044704;28;20519;-68
2022/07/29 06:52:42;;;;;;;8.57;5.32;;;;;;;16.89;73.59;101559.75;5041852;28;20237;-68
2022/07/29 06:55:08;;;;;;;8.75;5.63;;;;;;;16.92;75.27;101555.63;5045232;28;20028;-68
2022/07/29 06:57:34;;;;;;;9.43;5.70;;;;;;;17.06;74.83;101562.50;5041671;28;20020;-68
2022/07/29 06:59:59;;;;;;;8.40;5.13;;;;;;;17.25;74.36;101566.66;5043841;28;20021;-68
2022/07/29 07:02:25;;;;;;;9.20;5.25;;;;;;;17.35;74.12;101574.25;5044529;28;20033;-68
2022/07/29 07:04:50;;;;;;;8.60;5.25;;;;;;;17.41;73.96;101570.44;5041374;28;20028;-68
2022/07/29 07:07:16;;;;;;;8.13;5.00;;;;;;;17.46;73.04;101573.28;5036850;28;20393;-68
2022/07/29 07:09:41;;;;;;;9.65;5.78;;;;;;;17.47;73.72;101572.19;5043591;28;20052;-69
2022/07/29 07:12:06;;;;;;;9.18;5.38;;;;;;;17.51;73.05;101575.28;5045028;28;20036;-68
2022/07/29 07:14:32;;;;;;;8.20;5.68;;;;;;;17.45;72.36;101582.72;5043294;28;20410;-68
2022/07/29 07:16:59;;;;;;;9.90;5.85;;;;;;;17.44;72.51;101578.28;5043705;28;20021;-68
2022/07/29 07:19:25;;;;;;;11.02;6.80;;;;;;;17.45;72.65;101581.88;5032640;28;20561;-69
2022/07/29 07:21:50;;;;;;;9.23;6.22;;;;;;;17.43;72.29;101573.78;5043698;28;20025;-68
2022/07/29 07:24:15;;;;;;;9.27;6.25;;;;;;;17.46;73.30;101572.44;5043099;28;20028;-68
2022/07/29 07:26:41;;;;;;;8.18;6.15;;;;;;;17.43;72.52;101568.25;5045618;28;20134;-68
2022/07/29 07:29:06;;;;;;;9.52;6.38;;;;;;;17.42;73.19;101576.84;5040192;28;20074;-68
2022/07/29 07:31:31;;;;;;;7.85;6.05;;;;;;;17.36;72.31;101573.16;5054706;28;20027;-68
2022/07/29 07:33:57;;;;;;;10.32;6.88;;;;;;;17.38;73.46;101576.50;5043856;28;20496;-69
2022/07/29 07:36:24;;;;;;;9.75;6.63;;;;;;;17.38;73.24;101573.72;5043868;28;20028;-68
2022/07/29 07:38:49;;;;;;;12.98;6.70;;;;;;;17.40;73.03;101571.56;5036256;28;20563;-69
2022/07/29 07:41:15;;;;;;;10.73;6.30;;;;;;;17.40;73.35;101577.09;5033577;28;20024;-69
2022/07/29 07:43:40;;;;;;;9.65;6.18;;;;;;;17.49;73.46;101575.56;5045828;28;20041;-69
2022/07/29 07:46:05;;;;;;;7.65;6.25;;;;;;;17.68;73.17;101577.97;5040402;28;20098;-69
2022/07/29 07:48:31;;;;;;;10.02;6.35;;;;;;;17.91;71.84;101582.44;5045203;28;20039;-71
2022/07/29 07:50:56;;;;;;;11.27;6.07;;;;;;;17.95;70.60;101580.81;5045035;28;20481;-70
2022/07/29 07:53:21;;;;;;;9.60;6.30;;;;;;;17.99;71.81;101573.63;5039041;28;20047;-72
2022/07/29 07:55:47;;;;;;;11.32;6.13;;;;;;;17.94;71.18;101574.41;5037723;28;20100;-69
2022/07/29 07:58:12;;;;;;;8.73;5.53;;;;;;;17.93;71.91;101581.06;5040029;28;20032;-69
2022/07/29 08:00:37;;;;;;;11.50;6.10;;;;;;;17.94;72.46;101584.69;5043938;28;20025;-70
2022/07/29 08:03:03;;;;;;;11.65;5.90;;;;;;;17.94;71.93;101585.53;5042426;28;20392;-70
2022/07/29 08:05:30;;;;;;;11.60;6.28;;;;;;;18.03;72.00;101592.28;5043416;28;20057;-69
2022/07/29 08:07:55;;;;;;;10.55;6.03;;;;;;;18.07;70.39;101585.09;5042219;28;20060;-69
2022/07/29 08:13:10;;;;;;;11.05;6.45;;;;;;;18.27;69.83;101597.53;5044433;28;20120;-69
2022/07/29 08:15:36;;;;;;;10.57;6.18;;;;;;;18.39;70.77;101593.47;5038588;28;20025;-70
2022/07/29 08:18:03;;;;;;;8.77;6.30;;;;;;;18.46;69.12;101589.66;5036543;28;20406;-69
2022/07/29 08:20:29;;;;;;;9.45;5.68;;;;;;;18.56;69.26;101586.94;5042610;28;20124;-68
2022/07/29 08:22:54;;;;;;;8.57;6.10;;;;;;;18.62;67.49;101588.66;5031657;28;20023;-69
2022/07/29 08:25:20;;;;;;;10.55;6.18;;;;;;;18.71;68.70;101587.09;5044683;28;20115;-69
2022/07/29 08:27:49;;;;;;;8.82;5.82;;;;;;;18.81;69.54;101592.72;5042774;28;20021;-69
2022/07/29 08:30:14;;;;;;;11.02;6.32;;;;;;;18.91;66.94;101594.75;5042113;28;20064;-69
2022/07/29 08:32:40;;;;;;;11.55;6.10;;;;;;;19.01;67.89;101588.38;5044129;28;20373;-69
2022/07/29 08:35:05;;;;;;;9.75;6.03;;;;;;;19.20;69.75;101595.19;5044105;28;20029;-69
2022/07/29 08:37:31;;;;;;;9.30;6.05;;;;;;;19.22;66.08;101587.41;5043996;28;20546;-69
2022/07/29 08:39:56;;;;;;;10.05;6.75;;;;;;;19.37;66.18;101593.06;5043845;28;20115;-69
2022/07/29 08:42:21;;;;;;;12.13;6.40;;;;;;;19.52;64.25;101583.94;5043942;28;20099;-69
2022/07/29 08:44:48;;;;;;;10.38;5.88;;;;;;;19.66;65.34;101587.06;5044662;28;20028;-69
2022/07/29 08:47:16;;;;;;;13.13;6.18;;;;;;;19.71;65.02;101592.63;5044195;28;20025;-68
2022/07/29 08:49:42;;;;;;;10.95;5.65;;;;;;;19.83;62.77;101595.22;5044252;28;20067;-70
2022/07/29 08:52:10;;;;;;;9.73;5.88;;;;;;;19.88;64.73;101593.25;5043029;28;20033;-67
2022/07/29 08:54:36;;;;;;;11.40;6.65;;;;;;;20.04;63.40;101588.56;5042958;28;20029;-66
2022/07/29 08:57:02;;;;;;;11.02;6.03;;;;;;;20.21;63.06;101591.06;5041543;28;20052;-67
2022/07/29 08:59:29;;;;;;;15.40;6.32;;;;;;;20.28;60.93;101582.47;5039781;28;20877;-67
2022/07/29 09:01:59;;;;;;;10.80;6.40;;;;;;;20.43;63.90;101586.09;5040884;28;20035;-67
2022/07/29 09:04:27;;;;;;;12.45;6.40;;;;;;;20.53;62.47;101585.28;5039391;28;20108;-67
2022/07/29 09:06:56;;;;;;;10.45;6.63;;;;;;;20.57;61.14;101578.00;5043153;28;20049;-67
2022/07/29 09:09:22;;;;;;;11.85;6.47;;;;;;;20.83;61.93;101575.19;5031774;28;20025;-67
2022/07/29 09:11:48;;;;;;;14.68;6.78;;;;;;;20.90;61.14;101575.75;5040507;28;20039;-67
2022/07/29 09:14:14;;;;;;;12.95;6.70;;;;;;;21.04;62.08;101579.63;5032031;28;20033;-67
2022/07/29 09:16:49;;;;;;;11.52;6.55;;;;;;;21.20;59.50;101572.88;5036826;28;20025;-67
2022/07/29 09:19:30;;;;;;;11.13;5.95;;;;;;;21.53;58.47;101573.31;5043356;28;20017;-67
2022/07/29 09:21:57;;;;;;;15.15;5.80;;;;;;;21.74;58.26;101572.09;5039381;28;20021;-67
2022/07/29 09:24:23;;;;;;;10.27;5.93;;;;;;;21.76;55.87;101569.03;5039808;28;20016;-69
2022/07/29 09:26:48;;;;;;;11.68;5.88;;;;;;;22.01;56.71;101573.63;5042312;28;20083;-67
2022/07/29 09:29:19;;;;;;;12.90;5.93;;;;;;;22.78;56.24;101580.28;5038207;28;20025;-68
2022/07/29 09:31:46;;;;;;;11.15;5.90;;;;;;;24.38;51.48;101574.34;5040926;28;20029;-67
2022/07/29 09:34:14;;;;;;;8.38;5.47;;;;;;;25.50;48.36;101589.16;5034658;28;20033;-68
2022/07/29 09:36:42;;;;;;;8.65;5.85;;;;;;;25.62;46.53;101589.44;5024492;28;20153;-66
2022/07/29 09:39:07;;;;;;;11.35;5.78;;;;;;;26.78;44.39;101579.38;5038172;28;20037;-69
2022/07/29 09:41:52;;;;;;;9.80;5.80;;;;;;;27.58;44.79;101585.88;5045488;28;20036;-69
2022/07/29 09:44:18;;;;;;;10.55;5.68;;;;;;;28.15;40.51;101594.28;5044332;28;20127;-67
2022/07/29 09:47:05;;;;;;;10.93;5.85;;;;;;;30.15;39.94;101591.59;5039136;28;20151;-67
2022/07/29 09:49:35;;;;;;;10.32;5.68;;;;;;;31.10;34.72;101604.00;5030039;28;20040;-67
2022/07/29 09:52:04;;;;;;;13.20;6.43;;;;;;;31.29;32.59;101611.19;5044346;28;20043;-67
2022/07/29 09:54:34;;;;;;;10.60;5.40;;;;;;;32.22;31.71;101598.78;5045242;28;20029;-67
2022/07/29 09:56:59;;;;;;;11.52;5.75;;;;;;;32.84;31.19;101595.66;5045984;28;20454;-67
2022/07/29 09:59:26;;;;;;;13.57;6.30;;;;;;;33.32;29.72;101600.25;5043582;28;20075;-67
2022/07/29 10:01:52;;;;;;;11.52;5.80;;;;;;;33.70;30.19;101598.75;5046363;28;20024;-68
2022/07/29 10:04:18;;;;;;;10.02;4.85;;;;;;;34.12;29.40;101600.97;5046353;28;20037;-67
2022/07/29 10:07:01;;;;;;;12.25;5.72;;;;;;;34.23;30.23;101605.69;5045895;28;20037;-68
2022/07/29 10:09:26;;;;;;;11.52;5.03;;;;;;;34.08;27.74;101598.84;5044620;28;20024;-67
2022/07/29 10:12:15;;;;;;;14.13;6.10;;;;;;;34.76;29.67;101600.28;5046595;28;20686;-67
2022/07/29 10:14:41;;;;;;;9.98;5.30;;;;;;;34.81;26.79;101591.41;5046655;28;20245;-67
2022/07/29 10:17:09;;;;;;;12.35;4.85;;;;;;;34.97;25.06;101588.47;5027556;28;20033;-68
2022/07/29 10:19:35;;;;;;;11.07;4.90;;;;;;;35.07;26.65;101584.97;5012715;28;20087;-70
2022/07/29 10:22:03;;;;;;;12.05;4.40;;;;;;;34.85;27.13;101595.16;5008569;28;20115;-69
2022/07/29 10:24:31;;;;;;;10.13;4.40;;;;;;;35.27;26.30;101590.63;5039714;28;20029;-70
2022/07/29 10:26:59;;;;;;;7.20;3.58;;;;;;;35.77;25.36;101589.41;5042249;28;20025;-70
2022/07/29 10:29:28;;;;;;;10.35;4.30;;;;;;;36.27;24.78;101587.25;5044446;28;20021;-68
2022/07/29 10:32:08;;;;;;;8.60;4.72;;;;;;;36.18;26.84;101588.78;5045693;28;20051;-69
2022/07/29 10:34:48;;;;;;;6.18;4.05;;;;;;;36.24;26.58;101588.03;5046510;28;20078;-66
2022/07/29 10:37:43;;;;;;;11.45;4.85;;;;;;;36.70;25.88;101589.81;5045739;28;20025;-67
2022/07/29 10:43:19;;;;;;;9.45;4.20;;;;;;;36.45;25.19;101581.81;5027800;28;20060;-67
2022/07/29 10:45:47;;;;;;;9.48;4.18;;;;;;;36.25;24.67;101586.03;5029741;28;20057;-67
2022/07/29 10:48:13;;;;;;;8.60;3.95;;;;;;;36.36;23.46;101584.13;5045483;28;20027;-68
2022/07/29 10:50:59;;;;;;;9.57;4.55;;;;;;;36.63;25.20;101585.69;5045685;28;20120;-67
2022/07/29 10:53:49;;;;;;;9.70;4.47;;;;;;;36.06;24.55;101587.81;5046478;28;20029;-67
2022/07/29 10:56:33;;;;;;;10.98;4.95;;;;;;;35.28;26.23;101577.97;5047052;28;20055;-67
2022/07/29 10:59:20;;;;;;;9.63;4.45;;;;;;;34.63;26.82;101580.88;5034019;28;20056;-68
2022/07/29 11:01:56;;;;;;;9.70;4.50;;;;;;;33.22;27.36;101575.19;5043858;28;20538;-66
2022/07/29 11:04:44;;;;;;;10.07;4.80;;;;;;;32.19;29.72;101576.78;5043222;28;20025;-67
2022/07/29 11:07:11;;;;;;;9.77;5.10;;;;;;;30.42;30.85;101576.03;5030953;28;20290;-68
2022/07/29 11:09:36;;;;;;;9.00;4.15;;;;;;;29.18;34.61;101569.84;5042302;28;20033;-67
2022/07/29 11:12:02;;;;;;;11.80;4.70;;;;;;;28.82;37.30;101563.78;5035473;28;20388;-67
2022/07/29 11:14:52;;;;;;;10.27;4.03;;;;;;;29.00;37.74;101564.63;5041987;28;20344;-67
2022/07/29 11:17:18;;;;;;;8.82;3.83;;;;;;;28.87;36.65;101564.44;5045230;28;20032;-67
2022/07/29 11:19:44;;;;;;;9.32;4.82;;;;;;;28.48;34.60;101562.69;5043446;28;20029;-67
2022/07/29 11:22:11;;;;;;;10.82;5.15;;;;;;;28.19;36.38;101564.22;5031480;28;20032;-67
2022/07/29 11:24:37;;;;;;;7.60;3.95;;;;;;;28.40;37.37;101567.22;5041761;28;20052;-67
2022/07/29 11:27:14;;;;;;;6.65;2.85;;;;;;;28.48;39.09;101564.69;5046121;28;20047;-67
2022/07/29 11:29:49;;;;;;;8.38;3.15;;;;;;;28.50;37.55;101563.22;5046708;28;20040;-68
2022/07/29 11:32:18;;;;;;;6.95;3.00;;;;;;;28.49;37.49;101561.56;5033221;28;20116;-68
2022/07/29 11:34:43;;;;;;;9.25;3.67;;;;;;;28.41;36.25;101557.56;5043108;28;20035;-67
2022/07/29 11:37:09;;;;;;;10.93;3.55;;;;;;;28.54;36.56;101554.88;5045370;28;20108;-67